createdAt,value
2023-01-20T00:02:29.704Z,83.34
2023-01-20T00:05:00.600Z,83.65
2023-01-20T00:07:31.302Z,83.71
2023-01-20T00:10:02.441Z,83.61
2023-01-20T00:12:36.435Z,83.61
2023-01-20T00:15:10.230Z,83.36
2023-01-20T00:17:42.843Z,83.30
2023-01-20T00:20:15.855Z,83.81
2023-01-20T00:22:46.657Z,84.14
2023-01-20T00:25:17.360Z,84.31
2023-01-20T00:27:50.331Z,84.05
2023-01-20T00:30:23.224Z,83.80
2023-01-20T00:32:56.754Z,83.90
2023-01-20T00:35:28.652Z,84.12
2023-01-20T00:38:01.410Z,84.12
2023-01-20T00:40:32.033Z,84.05
2023-01-20T00:43:04.272Z,84.21
2023-01-20T00:45:34.937Z,84.37
2023-01-20T00:48:08.245Z,84.15
2023-01-20T00:50:42.251Z,84.20
2023-01-20T00:53:13.185Z,84.28
2023-01-20T00:55:47.125Z,84.12
2023-01-20T00:58:19.051Z,83.63
2023-01-20T01:00:52.183Z,83.68
2023-01-20T01:03:24.378Z,83.44
2023-01-20T01:05:58.011Z,83.90
2023-01-20T01:08:32.642Z,84.22
2023-01-20T01:11:13.347Z,84.02
2023-01-20T01:13:44.172Z,83.98
2023-01-20T01:16:19.444Z,83.87
2023-01-20T01:18:51.628Z,83.93
2023-01-20T01:21:22.966Z,83.62
2023-01-20T01:23:56.605Z,83.93
2023-01-20T01:26:27.337Z,83.32
2023-01-20T01:28:59.320Z,83.84
2023-01-20T01:31:31.592Z,83.65
2023-01-20T01:34:05.133Z,83.81
2023-01-20T01:36:39.455Z,84.00
2023-01-20T01:39:10.579Z,83.75
2023-01-20T01:41:41.126Z,83.69
2023-01-20T01:44:16.823Z,83.85
2023-01-20T01:46:47.513Z,83.94
2023-01-20T01:49:24.150Z,83.77
2023-01-20T01:51:58.274Z,84.13
2023-01-20T01:54:32.496Z,84.30
2023-01-20T01:57:05.573Z,84.13
2023-01-20T01:59:36.643Z,84.20
2023-01-20T02:02:07.520Z,84.27
2023-01-20T02:04:39.286Z,84.17
2023-01-20T02:07:12.863Z,84.36
2023-01-20T02:09:45.617Z,84.20
2023-01-20T02:12:22.472Z,83.97
2023-01-20T02:15:00.827Z,84.05
2023-01-20T02:17:42.142Z,83.34
2023-01-20T02:20:35.216Z,83.52
2023-01-20T02:23:28.893Z,83.45
2023-01-20T02:26:31.522Z,83.59
2023-01-20T02:29:20.081Z,83.72
2023-01-20T02:32:06.046Z,83.93
2023-01-20T02:34:42.580Z,84.00
2023-01-20T02:37:23.153Z,84.16
2023-01-20T02:40:18.019Z,83.79
2023-01-20T02:43:06.609Z,83.89
2023-01-20T02:45:40.453Z,83.59
2023-01-20T02:48:39.837Z,83.72
2023-01-20T02:51:21.992Z,83.59
2023-01-20T02:53:56.463Z,83.26
2023-01-20T02:56:29.909Z,83.07
2023-01-20T02:59:17.677Z,83.20
2023-01-20T03:01:57.256Z,82.43
2023-01-20T03:04:30.947Z,82.72
2023-01-20T03:07:06.943Z,82.56
2023-01-20T03:09:43.375Z,82.70
2023-01-20T03:12:29.694Z,81.93
2023-01-20T03:15:05.842Z,82.29
2023-01-20T03:17:39.548Z,82.03
2023-01-20T03:20:12.652Z,82.13
2023-01-20T03:22:44.582Z,82.06
2023-01-20T03:25:18.933Z,81.88
2023-01-20T03:27:51.147Z,82.10
2023-01-20T03:30:25.924Z,82.14
2023-01-20T03:32:57.874Z,82.49
2023-01-20T03:35:28.845Z,82.47
2023-01-20T03:40:54.774Z,82.43
2023-01-20T03:43:39.689Z,82.66
2023-01-20T03:46:21.996Z,82.06
2023-01-20T03:49:14.345Z,82.86
2023-01-20T03:51:56.898Z,83.05
2023-01-20T03:54:31.444Z,83.21
2023-01-20T03:57:13.998Z,83.50
2023-01-20T03:59:46.733Z,83.21
2023-01-20T04:02:19.208Z,83.30
2023-01-20T04:04:53.949Z,83.45
2023-01-20T04:07:29.257Z,83.39
2023-01-20T04:10:06.967Z,83.82
2023-01-20T04:12:39.110Z,83.58
2023-01-20T04:15:13.900Z,83.89
2023-01-20T04:17:47.499Z,83.85
2023-01-20T04:20:20.643Z,84.27
2023-01-20T04:22:54.511Z,84.46
2023-01-20T04:25:33.173Z,84.42
2023-01-20T04:28:06.884Z,84.82
2023-01-20T04:30:39.169Z,84.36
2023-01-20T04:33:12.673Z,84.71
2023-01-20T04:35:44.907Z,85.16
2023-01-20T04:38:17.986Z,84.56
2023-01-20T04:40:49.209Z,84.26
2023-01-20T04:43:19.786Z,84.89
2023-01-20T04:45:50.336Z,85.25
2023-01-20T04:48:21.993Z,85.82
2023-01-20T04:50:52.751Z,85.61
2023-01-20T04:53:23.765Z,85.18
2023-01-20T04:55:58.133Z,85.43
2023-01-20T04:58:30.487Z,85.87
2023-01-20T05:01:05.681Z,85.47
2023-01-20T05:03:56.877Z,85.73
2023-01-20T05:06:27.719Z,85.40
2023-01-20T05:08:58.223Z,85.63
2023-01-20T05:11:28.924Z,85.37
2023-01-20T05:13:59.429Z,85.32
2023-01-20T05:16:32.197Z,85.08
2023-01-20T05:19:02.728Z,85.08
2023-01-20T05:21:34.203Z,85.20
2023-01-20T05:24:05.006Z,84.75
2023-01-20T05:26:35.975Z,84.65
2023-01-20T05:29:09.224Z,84.89
2023-01-20T05:31:41.364Z,84.53
2023-01-20T05:34:12.625Z,84.70
2023-01-20T05:36:43.081Z,84.32
2023-01-20T05:39:16.210Z,84.18
2023-01-20T05:41:46.732Z,84.29
2023-01-20T05:44:18.736Z,84.57
2023-01-20T05:46:50.114Z,84.10
2023-01-20T05:49:20.962Z,84.76
2023-01-20T05:51:51.427Z,84.73
2023-01-20T05:54:22.128Z,84.20
2023-01-20T05:56:52.655Z,84.34
2023-01-20T05:59:25.091Z,84.92
2023-01-20T06:01:57.965Z,85.07
2023-01-20T06:04:31.601Z,85.06
2023-01-20T06:07:02.061Z,84.64
2023-01-20T06:09:36.851Z,84.94
2023-01-20T06:12:07.840Z,85.03
2023-01-20T06:14:38.612Z,85.45
2023-01-20T06:17:09.256Z,85.60
2023-01-20T06:19:42.296Z,85.79
2023-01-20T06:22:15.856Z,86.18
2023-01-20T06:24:46.455Z,86.27
2023-01-20T06:27:17.778Z,85.94
2023-01-20T06:29:48.195Z,86.07
2023-01-20T06:32:18.929Z,86.34
2023-01-20T06:34:51.753Z,86.19
2023-01-20T06:37:23.641Z,85.35
2023-01-20T06:39:54.377Z,85.55
2023-01-20T06:42:25.055Z,85.60
2023-01-20T06:44:55.580Z,85.44
2023-01-20T06:47:29.699Z,85.37
2023-01-20T06:50:03.157Z,85.63
2023-01-20T06:52:36.155Z,86.07
2023-01-20T06:55:06.740Z,86.04
2023-01-20T06:57:40.254Z,86.07
2023-01-20T07:00:11.689Z,86.06
2023-01-20T07:02:44.510Z,85.75
2023-01-20T07:05:16.756Z,85.85
2023-01-20T07:07:49.855Z,86.43
2023-01-20T07:10:21.999Z,86.40
2023-01-20T07:12:57.161Z,85.76
2023-01-20T07:15:30.139Z,86.20
2023-01-20T07:18:02.847Z,86.37
2023-01-20T07:20:35.485Z,86.10
2023-01-20T07:23:11.977Z,85.65
2023-01-20T07:25:42.429Z,85.61
2023-01-20T07:28:17.896Z,85.81
2023-01-20T07:30:48.437Z,85.97
2023-01-20T07:33:18.931Z,85.92
2023-01-20T07:35:55.748Z,85.86
2023-01-20T07:38:27.663Z,85.65
2023-01-20T07:41:04.953Z,85.57
2023-01-20T07:43:37.809Z,85.02
2023-01-20T07:46:08.477Z,84.86
2023-01-20T07:48:40.039Z,85.15
2023-01-20T07:51:13.306Z,84.97
2023-01-20T07:53:49.216Z,84.89
2023-01-20T07:56:29.258Z,84.80
2023-01-20T07:58:59.949Z,84.87
2023-01-20T08:01:33.051Z,85.04
2023-01-20T08:04:05.470Z,84.64
2023-01-20T08:06:35.950Z,84.56
2023-01-20T08:09:12.824Z,84.87
2023-01-20T08:11:44.817Z,85.24
2023-01-20T08:14:16.783Z,85.04
2023-01-20T08:16:47.415Z,85.32
2023-01-20T08:19:19.610Z,84.98
2023-01-20T08:21:54.674Z,85.52
2023-01-20T08:24:25.486Z,85.47
2023-01-20T08:26:57.921Z,85.46
2023-01-20T08:29:30.452Z,85.61
2023-01-20T08:32:03.352Z,85.62
2023-01-20T08:34:35.352Z,86.05
2023-01-20T08:37:12.035Z,85.85
2023-01-20T08:39:43.685Z,85.76
2023-01-20T08:42:14.467Z,85.49
2023-01-20T08:44:45.182Z,85.30
2023-01-20T08:47:17.267Z,85.14
2023-01-20T08:49:49.672Z,85.07
2023-01-20T08:52:22.991Z,84.29
2023-01-20T08:54:56.776Z,84.25
2023-01-20T08:57:29.130Z,84.21
2023-01-20T09:00:01.679Z,83.89
2023-01-20T09:02:33.681Z,84.14
2023-01-20T09:05:07.426Z,84.36
2023-01-20T09:07:40.596Z,84.15
2023-01-20T09:10:12.483Z,84.33
2023-01-20T09:12:44.550Z,84.49
2023-01-20T09:15:21.630Z,84.08
2023-01-20T09:17:52.093Z,83.65
2023-01-20T09:20:29.409Z,82.84
2023-01-20T09:23:06.953Z,83.29
2023-01-20T09:25:37.777Z,83.29
2023-01-20T09:28:08.292Z,83.05
2023-01-20T09:30:42.723Z,83.65
2023-01-20T09:33:14.870Z,83.54
2023-01-20T09:35:52.289Z,83.51
2023-01-20T09:38:43.468Z,83.29
2023-01-20T09:41:43.526Z,82.79
2023-01-20T09:44:37.907Z,82.73
2023-01-20T09:47:35.454Z,82.89
2023-01-20T09:50:50.317Z,82.99
2023-01-20T09:53:52.929Z,82.38
2023-01-20T09:56:27.218Z,82.96
2023-01-20T09:59:08.578Z,82.80
2023-01-20T10:01:43.253Z,82.48
2023-01-20T10:04:26.691Z,82.58
2023-01-20T10:07:24.194Z,82.63
2023-01-20T10:10:11.348Z,82.85
2023-01-20T10:13:16.097Z,82.57
2023-01-20T10:15:53.334Z,82.87
2023-01-20T10:18:53.726Z,82.69
2023-01-20T10:21:45.231Z,81.83
2023-01-20T10:24:27.684Z,81.71
2023-01-20T10:27:04.211Z,81.22
2023-01-20T10:29:40.796Z,81.81
2023-01-20T10:32:17.123Z,81.40
2023-01-20T10:34:56.668Z,80.98
2023-01-20T10:37:28.234Z,81.09
2023-01-20T10:40:15.533Z,80.39
2023-01-20T10:42:49.535Z,79.84
2023-01-20T10:45:27.901Z,79.78
2023-01-20T10:48:09.548Z,79.33
2023-01-20T10:50:46.963Z,79.23
2023-01-20T10:53:36.094Z,78.96
2023-01-20T10:56:15.797Z,78.92
2023-01-20T10:58:52.164Z,79.14
2023-01-20T11:01:24.315Z,79.57
2023-01-20T11:03:56.883Z,79.53
2023-01-20T11:06:30.403Z,79.54
2023-01-20T11:09:08.919Z,79.36
2023-01-20T11:11:41.290Z,79.78
2023-01-20T11:14:17.137Z,79.73
2023-01-20T11:16:53.844Z,78.88
2023-01-20T11:19:28.247Z,79.48
2023-01-20T11:22:01.746Z,79.93
2023-01-20T11:24:41.270Z,79.89
2023-01-20T11:27:15.796Z,79.79
2023-01-20T11:29:59.856Z,80.01
2023-01-20T11:32:39.365Z,80.44
2023-01-20T11:35:29.208Z,80.66
2023-01-20T11:38:02.464Z,80.71
2023-01-20T11:40:33.167Z,80.80
2023-01-20T11:43:08.779Z,80.45
2023-01-20T11:45:41.796Z,80.04
2023-01-20T11:48:21.588Z,80.21
2023-01-20T11:50:58.773Z,80.70
2023-01-20T11:53:34.357Z,80.39
2023-01-20T11:56:08.488Z,80.19
2023-01-20T11:58:58.657Z,79.60
2023-01-20T12:01:32.181Z,79.28
2023-01-20T12:04:08.186Z,79.24
2023-01-20T12:06:44.578Z,79.08
2023-01-20T12:09:19.393Z,78.82
2023-01-20T12:12:08.140Z,78.40
2023-01-20T12:14:53.789Z,78.56
2023-01-20T12:17:48.482Z,78.90
2023-01-20T12:20:56.230Z,79.09
2023-01-20T12:23:29.061Z,78.78
2023-01-20T12:26:03.478Z,79.01
2023-01-20T12:28:47.383Z,79.13
2023-01-20T12:31:21.295Z,79.67
2023-01-20T12:34:03.652Z,79.15
2023-01-20T12:36:57.142Z,78.88
2023-01-20T12:39:36.421Z,78.34
2023-01-20T12:42:18.501Z,77.35
2023-01-20T12:45:01.407Z,77.79
2023-01-20T12:47:51.250Z,77.43
2023-01-20T12:50:33.790Z,78.30
2023-01-20T12:53:18.573Z,78.23
2023-01-20T12:56:12.704Z,77.99
2023-01-20T12:58:59.259Z,77.99
2023-01-20T13:01:46.791Z,77.45
2023-01-20T13:04:37.735Z,77.44
2023-01-20T13:07:14.067Z,77.21
2023-01-20T13:10:02.693Z,77.17
2023-01-20T13:12:58.441Z,76.85
2023-01-20T13:15:32.960Z,77.80
2023-01-20T13:18:25.931Z,77.26
2023-01-20T13:20:57.036Z,76.88
2023-01-20T13:23:32.007Z,76.27
2023-01-20T13:26:07.419Z,75.71
2023-01-20T13:28:43.127Z,75.48
2023-01-20T13:31:36.638Z,76.06
2023-01-20T13:34:27.127Z,76.46
2023-01-20T13:37:08.501Z,76.58
2023-01-20T13:39:49.397Z,76.50
2023-01-20T13:42:33.735Z,76.58
2023-01-20T13:45:16.253Z,76.80
2023-01-20T13:48:11.045Z,75.96
2023-01-20T13:50:43.735Z,76.57
2023-01-20T13:53:23.013Z,76.66
2023-01-20T13:55:56.148Z,76.53
2023-01-20T13:58:37.175Z,76.22
2023-01-20T14:01:10.683Z,76.44
2023-01-20T14:03:45.138Z,76.14
2023-01-20T14:06:23.140Z,77.18
2023-01-20T14:08:55.294Z,77.50
2023-01-20T14:11:28.487Z,77.48
2023-01-20T14:14:05.955Z,78.17
2023-01-20T14:16:42.375Z,78.86
2023-01-20T14:19:32.673Z,78.56
2023-01-20T14:22:07.318Z,79.15
2023-01-20T14:24:41.065Z,79.50
2023-01-20T14:27:26.819Z,79.93
2023-01-20T14:30:00.586Z,80.32
2023-01-20T14:32:37.781Z,80.17
2023-01-20T14:35:35.651Z,80.17
2023-01-20T14:38:08.859Z,79.93
2023-01-20T14:40:43.030Z,80.35
2023-01-20T14:43:23.144Z,80.00
2023-01-20T14:45:56.601Z,79.97
2023-01-20T14:48:34.759Z,80.07
2023-01-20T14:51:02.714Z,80.02
2023-01-20T14:53:35.833Z,79.95
2023-01-20T14:56:17.673Z,79.68
2023-01-20T14:58:49.526Z,79.66
2023-01-20T15:01:25.829Z,79.49
2023-01-20T15:04:02.154Z,79.39
2023-01-20T15:06:35.126Z,79.69
2023-01-20T15:09:08.746Z,79.68
2023-01-20T15:11:40.380Z,79.25
2023-01-20T15:14:12.714Z,79.13
2023-01-20T15:16:51.057Z,79.83
2023-01-20T15:19:32.519Z,79.39
2023-01-20T15:22:17.626Z,79.88
2023-01-20T15:24:50.178Z,79.85
2023-01-20T15:27:29.461Z,79.93
2023-01-20T15:30:16.919Z,80.16
2023-01-20T15:32:50.193Z,79.66
2023-01-20T15:35:25.272Z,79.82
2023-01-20T15:37:59.016Z,79.58
2023-01-20T15:40:30.983Z,79.26
2023-01-20T15:43:01.517Z,79.90
2023-01-20T15:45:32.257Z,80.44
2023-01-20T15:48:05.825Z,80.92
2023-01-20T15:50:36.445Z,81.19
2023-01-20T15:53:12.601Z,81.63
2023-01-20T15:55:49.220Z,81.60
2023-01-20T15:58:24.614Z,81.59
2023-01-20T16:00:56.487Z,81.42
2023-01-20T16:03:28.911Z,81.83
2023-01-20T16:06:02.258Z,81.70
2023-01-20T16:08:36.932Z,82.23
2023-01-20T16:11:08.758Z,82.01
2023-01-20T16:13:43.628Z,82.00
2023-01-20T16:16:20.190Z,82.32
2023-01-20T16:18:52.942Z,82.60
2023-01-20T16:21:28.087Z,83.13
2023-01-20T16:23:58.906Z,83.04
2023-01-20T16:26:34.202Z,83.52
2023-01-20T16:29:07.639Z,83.68
2023-01-20T16:31:38.948Z,83.46
2023-01-20T16:34:11.184Z,83.57
2023-01-20T16:36:41.607Z,83.72
2023-01-20T16:39:13.372Z,83.49
2023-01-20T16:41:46.846Z,82.77
2023-01-20T16:44:19.989Z,82.70
2023-01-20T16:46:51.442Z,82.60
2023-01-20T16:49:23.964Z,82.61
2023-01-20T16:51:54.411Z,82.41
2023-01-20T16:54:26.363Z,82.53
2023-01-20T16:56:59.063Z,83.00
2023-01-20T16:59:29.739Z,83.12
2023-01-20T17:02:01.627Z,82.96
2023-01-20T17:04:32.580Z,82.62
2023-01-20T17:07:04.209Z,82.51
2023-01-20T17:09:35.860Z,82.60
2023-01-20T17:12:06.445Z,82.14
2023-01-20T17:14:38.785Z,81.68
2023-01-20T17:17:12.492Z,81.64
2023-01-20T17:19:43.122Z,81.62
2023-01-20T17:22:17.966Z,81.66
2023-01-20T17:24:48.391Z,81.83
2023-01-20T17:27:19.087Z,81.63
2023-01-20T17:29:49.785Z,81.28
2023-01-20T17:32:21.868Z,81.40
2023-01-20T17:34:52.318Z,81.10
2023-01-20T17:37:22.953Z,81.24
2023-01-20T17:39:53.971Z,81.29
2023-01-20T17:42:26.079Z,81.05
2023-01-20T17:44:58.162Z,81.27
2023-01-20T17:47:31.302Z,81.21
2023-01-20T17:50:02.277Z,81.26
2023-01-20T17:52:32.802Z,81.57
2023-01-20T17:55:05.751Z,81.26
2023-01-20T17:57:37.811Z,81.05
2023-01-20T18:00:09.440Z,81.15
2023-01-20T18:02:40.257Z,81.12
2023-01-20T18:05:14.338Z,81.44
2023-01-20T18:07:45.200Z,81.64
2023-01-20T18:10:16.942Z,82.16
2023-01-20T18:12:47.634Z,82.20
2023-01-20T18:15:18.376Z,82.24
2023-01-20T18:17:48.955Z,81.90
2023-01-20T18:20:20.057Z,82.13
2023-01-20T18:22:52.377Z,82.25
2023-01-20T18:25:25.337Z,82.55
2023-01-20T18:27:57.390Z,82.48
2023-01-20T18:30:27.857Z,82.41
2023-01-20T18:32:59.932Z,81.82
2023-01-20T18:35:31.212Z,82.35
2023-01-20T18:38:02.792Z,82.02
2023-01-20T18:40:33.825Z,81.99
2023-01-20T18:43:04.309Z,82.04
2023-01-20T18:45:34.971Z,82.29
2023-01-20T18:48:05.875Z,82.57
2023-01-20T18:50:36.405Z,81.87
2023-01-20T18:53:09.648Z,82.39
2023-01-20T18:55:40.121Z,81.85
2023-01-20T18:58:11.026Z,81.64
2023-01-20T19:00:43.438Z,81.66
2023-01-20T19:03:14.523Z,81.33
2023-01-20T19:05:47.782Z,81.63
2023-01-20T19:08:18.351Z,81.97
2023-01-20T19:10:50.438Z,81.73
2023-01-20T19:13:20.945Z,81.85
2023-01-20T19:15:55.716Z,82.30
2023-01-20T19:18:26.917Z,82.48
2023-01-20T19:21:00.746Z,82.33
2023-01-20T19:23:31.488Z,81.61
2023-01-20T19:26:07.581Z,82.13
2023-01-20T19:28:38.607Z,82.35
2023-01-20T19:31:12.366Z,82.69
2023-01-20T19:33:46.057Z,81.98
2023-01-20T19:36:18.196Z,82.27
2023-01-20T19:38:50.727Z,82.20
2023-01-20T19:41:31.198Z,82.16
2023-01-20T19:44:03.683Z,82.75
2023-01-20T19:46:38.794Z,82.90
2023-01-20T19:49:11.787Z,82.83
2023-01-20T19:51:43.396Z,83.23
2023-01-20T19:54:16.395Z,83.13
2023-01-20T19:56:49.220Z,83.35
2023-01-20T19:59:22.656Z,83.29
2023-01-20T20:01:53.203Z,82.96
2023-01-20T20:04:25.234Z,82.59
2023-01-20T20:06:56.005Z,82.56
2023-01-20T20:09:26.859Z,82.22
2023-01-20T20:11:59.574Z,82.21
2023-01-20T20:14:31.696Z,82.67
2023-01-20T20:17:05.489Z,82.65
2023-01-20T20:19:35.923Z,82.80
2023-01-20T20:22:07.678Z,83.09
2023-01-20T20:24:40.034Z,83.20
2023-01-20T20:27:11.677Z,83.23
2023-01-20T20:29:42.983Z,83.23
2023-01-20T20:32:13.442Z,83.12
2023-01-20T20:34:43.855Z,82.96
2023-01-20T20:37:16.510Z,82.67
2023-01-20T20:39:47.922Z,82.60
2023-01-20T20:42:20.811Z,82.85
2023-01-20T20:44:55.560Z,82.53
2023-01-20T20:47:27.297Z,82.71
2023-01-20T20:50:00.737Z,82.74
2023-01-20T20:52:32.782Z,82.56
2023-01-20T20:55:06.735Z,82.33
2023-01-20T20:57:38.271Z,82.62
2023-01-20T21:00:11.595Z,82.61
2023-01-20T21:02:44.728Z,82.05
2023-01-20T21:05:17.917Z,82.54
2023-01-20T21:07:48.417Z,82.25
2023-01-20T21:10:21.761Z,82.01
2023-01-20T21:12:53.745Z,81.87
2023-01-20T21:15:25.939Z,82.35
2023-01-20T21:17:56.419Z,82.12
2023-01-20T21:20:31.638Z,82.14
2023-01-20T21:23:04.464Z,82.27
2023-01-20T21:25:34.911Z,82.49
2023-01-20T21:28:06.066Z,82.02
2023-01-20T21:30:38.371Z,82.60
2023-01-20T21:33:10.606Z,82.48
2023-01-20T21:35:41.092Z,82.75
2023-01-20T21:38:11.863Z,82.65
2023-01-20T21:40:44.527Z,82.64
2023-01-20T21:43:33.720Z,82.40
2023-01-20T21:46:04.322Z,82.58
2023-01-20T21:48:52.603Z,82.50
2023-01-20T21:51:41.308Z,82.63
2023-01-20T21:54:14.791Z,82.44
2023-01-20T21:56:46.775Z,82.49
2023-01-20T21:59:19.752Z,82.54
2023-01-20T22:01:50.695Z,82.76
2023-01-20T22:04:21.339Z,82.47
2023-01-20T22:06:52.430Z,82.31
2023-01-20T22:09:22.788Z,82.50
2023-01-20T22:11:53.229Z,82.15
2023-01-20T22:14:23.777Z,82.30
2023-01-20T22:16:55.051Z,82.36
2023-01-20T22:19:25.549Z,81.79
2023-01-20T22:21:57.022Z,82.18
2023-01-20T22:24:28.180Z,82.28
2023-01-20T22:27:00.908Z,82.40
2023-01-20T22:29:31.804Z,82.68
2023-01-20T22:32:04.172Z,82.67
2023-01-20T22:34:34.940Z,82.42
2023-01-20T22:37:06.441Z,82.35
2023-01-20T22:39:37.099Z,82.67
2023-01-20T22:42:09.099Z,82.26
2023-01-20T22:44:41.954Z,81.99
2023-01-20T22:47:12.782Z,82.11
2023-01-20T22:49:43.727Z,82.06
2023-01-20T22:52:16.595Z,81.67
2023-01-20T22:54:47.139Z,82.22
2023-01-20T22:57:19.256Z,82.65
2023-01-20T22:59:51.628Z,82.69
2023-01-20T23:02:23.380Z,82.84
2023-01-20T23:04:53.893Z,83.75
2023-01-20T23:07:24.930Z,83.47
2023-01-20T23:09:55.862Z,82.82
2023-01-20T23:12:26.630Z,82.85
2023-01-20T23:15:00.953Z,83.04
2023-01-20T23:17:35.316Z,83.09
2023-01-20T23:20:06.938Z,83.38
2023-01-20T23:22:37.448Z,83.46
2023-01-20T23:25:11.347Z,83.58
2023-01-20T23:27:42.198Z,83.30
2023-01-20T23:30:13.350Z,83.54
2023-01-20T23:32:45.289Z,83.56
2023-01-20T23:35:18.200Z,84.00
2023-01-20T23:37:50.386Z,83.62
2023-01-20T23:40:24.224Z,83.76
2023-01-20T23:42:54.688Z,84.06
2023-01-20T23:45:25.415Z,84.01
2023-01-20T23:47:56.311Z,83.96
2023-01-20T23:50:29.538Z,84.12
2023-01-20T23:53:01.414Z,84.23
2023-01-20T23:55:32.632Z,84.38
2023-01-20T23:58:04.825Z,84.25
